Aeroporto :
LOGIN :

Iscrizione | Disclaimer

   EN    FR    IT 

 










Sommario :    VFR   VFR Marginale   IFR   IFR Intensivo   IFR Molto Intensivo
Visibilità : 
Base nubi : 
>= 8 km
>= 3000ft
5 / 8 km
1000 / 3000 ft
1500m / 5 km
500 / 1000 ft
800 / 1500m
200 / 500 ft
< 800m
< 200 ft
Simboli :   Temporali  Nebbia  Neve Forte  Precipitazioni Forti  Vento > 20 kt
SIGMETs :   Varie  Temporali  Ghiacco  Turbolenza  Onda orograficha  Ceneri Vulcaniche






- Altitudine del aeroporto : 162 ft
- Codice IATA : BOD


LFBD - Bordeaux / Merignac

ULTIMO METAR :
  • 221130Z AUTO 01008KT CAVOK 13/11 Q1019 NOSIG

METARs OBSOLETI :
  • 221100Z AUTO 02006KT CAVOK 12/10 Q1020 NOSIG
  • 221030Z AUTO 01004KT 350V050 CAVOK 12/10 Q1020 NOSIG
  • 221000Z AUTO 35004KT 330V030 CAVOK 12/10 Q1020 NOSIG
  • 220930Z AUTO 03005KT CAVOK 11/09 Q1020 NOSIG
  • 220900Z AUTO 04006KT CAVOK 10/09 Q1020 NOSIG

TAF TAF LFBD
Valido dal 22 a 12 ore il 23 a 18 ore UTC


221100Z 2212/2318 03005KT CAVOK TX15/2315Z TN12/2212Z
BECMG 2212/2214 -RA SCT014 BKN070
BECMG 2216/2218 BKN008
TEMPO 2218/2305 3000 RA OVC004
BECMG 2305/2307 NSW OVC005
BECMG 2313/2315 BKN015
TEMPO 2312/2318 4000 -RA BKN007
ATIS : +33 5 57 92 81 04



MetMap, La meteo Aeronautica in un colpo d'occhio ! - Copyright ORBIFLY Dicembre 2007 - Disclaimer

ORBIFLY MET'MAP TEAM :

Programmazione e sviluppo : Alexandra Zaïnal
Concezione e sviluppo : Baudouin d'Aumeries
Co-Programmazione e sviluppo : Marc-Olivier Méhu
Supporto tecnico e logistico : Manuel Goepfert
Aiuto per la traduzione : Arnaldo La Scala

Contatto : metmap@orbifly.com




FONTI E CREDITI :

   NOAA